Time;durP1;ratioP1;P1;durP2;ratioP2;P2;SDS_P1;SDS_P2;PMS_P1;PMS_P2;Temp;Humidity;BMP_temperature;BMP_pressure;BME280_temperature;BME280_humidity;BME280_pressure;Samples;Min_cycle;Max_cycle;Signal;HPM_P1;HPM_P2
2022/09/05 00:01:52;;;;;;;4.85;3.00;;;;;;;;;;5033034;28;20045;-60
2022/09/05 00:04:30;;;;;;;4.20;2.90;;;;;;;;;;5032952;28;20095;-59
2022/09/05 00:07:03;;;;;;;3.00;2.60;;;;;;;;;;5032129;28;20037;-59
2022/09/05 00:09:49;;;;;;;4.57;3.03;;;;;;;;;;5032317;28;20054;-59
2022/09/05 00:12:16;;;;;;;5.13;3.08;;;;;;;;;;5032562;28;20046;-59
2022/09/05 00:15:00;;;;;;;5.20;3.45;;;;;;;;;;5032251;28;20037;-60
2022/09/05 00:17:45;;;;;;;3.58;2.75;;;;;;;;;;5032795;28;20041;-59
2022/09/05 00:20:43;;;;;;;7.35;3.35;;;;;;;;;;5032607;28;20418;-59
2022/09/05 00:23:18;;;;;;;10.98;3.30;;;;;;;;;;4998576;28;20056;-59
2022/09/05 00:26:03;;;;;;;3.35;3.05;;;;;;;;;;5039447;28;20047;-58
2022/09/05 00:28:29;;;;;;;4.10;3.20;;;;;;;;;;5051943;28;20041;-59
2022/09/05 00:31:11;;;;;;;5.95;3.38;;;;;;;;;;5052501;28;20044;-59
2022/09/05 00:33:55;;;;;;;5.60;3.40;;;;;;;;;;5052281;28;20045;-59
2022/09/05 00:36:40;;;;;;;4.85;3.25;;;;;;;;;;5051599;28;20083;-59
2022/09/05 00:39:16;;;;;;;4.18;3.50;;;;;;;;;;5052266;28;20133;-59
2022/09/05 00:41:43;;;;;;;3.42;3.13;;;;;;;;;;5052289;28;20041;-59
2022/09/05 00:44:12;;;;;;;4.32;2.92;;;;;;;;;;5051718;28;20112;-59
2022/09/05 00:46:41;;;;;;;7.85;3.38;;;;;;;;;;5051981;28;20098;-60
2022/09/05 00:49:27;;;;;;;3.85;3.20;;;;;;;;;;5050564;28;20123;-59
2022/09/05 00:51:58;;;;;;;6.80;3.50;;;;;;;;;;5051704;28;20411;-59
2022/09/05 00:54:44;;;;;;;5.95;3.97;;;;;;;;;;5051712;28;20052;-59
2022/09/05 00:57:29;;;;;;;4.85;3.38;;;;;;;;;;5034412;28;20075;-59
2022/09/05 01:00:27;;;;;;;4.55;3.38;;;;;;;;;;5051464;28;20048;-59
2022/09/05 01:02:53;;;;;;;4.80;3.17;;;;;;;;;;4987791;28;20053;-59
2022/09/05 01:05:25;;;;;;;4.32;3.00;;;;;;;;;;5031644;28;20562;-59
2022/09/05 01:08:01;;;;;;;4.88;3.55;;;;;;;;;;5031156;28;20044;-59
2022/09/05 01:10:36;;;;;;;5.32;3.28;;;;;;;;;;5031597;28;20053;-59
2022/09/05 01:13:20;;;;;;;4.03;3.70;;;;;;;;;;5031354;28;20037;-59
2022/09/05 01:15:58;;;;;;;4.95;3.67;;;;;;;;;;5031680;28;20042;-59
2022/09/05 01:18:39;;;;;;;6.07;4.30;;;;;;;;;;5031529;28;20042;-59
2022/09/05 01:21:16;;;;;;;5.10;3.72;;;;;;;;;;5031102;28;20091;-59
2022/09/05 01:23:53;;;;;;;7.22;3.53;;;;;;;;;;5031516;28;20373;-59
2022/09/05 01:26:31;;;;;;;6.72;3.80;;;;;;;;;;5043142;28;20043;-59
2022/09/05 01:28:57;;;;;;;4.63;3.75;;;;;;;;;;5050949;28;20566;-59
2022/09/05 01:31:23;;;;;;;4.43;3.63;;;;;;;;;;5051077;28;20037;-59
2022/09/05 01:34:01;;;;;;;5.80;4.10;;;;;;;;;;5050852;28;20045;-59
2022/09/05 01:36:53;;;;;;;4.32;3.50;;;;;;;;;;5050748;28;20051;-59
2022/09/05 01:39:19;;;;;;;6.00;4.07;;;;;;;;;;5046350;28;20515;-59
2022/09/05 01:41:58;;;;;;;5.88;3.92;;;;;;;;;;5051107;28;20167;-59
2022/09/05 01:44:50;;;;;;;5.65;4.05;;;;;;;;;;5050679;28;20103;-59
2022/09/05 01:47:25;;;;;;;4.93;3.95;;;;;;;;;;5012872;28;20048;-59
2022/09/05 01:50:04;;;;;;;7.05;4.40;;;;;;;;;;5050310;28;20079;-59
2022/09/05 01:52:49;;;;;;;4.63;3.83;;;;;;;;;;5032918;28;20041;-59
2022/09/05 01:55:27;;;;;;;6.40;3.90;;;;;;;;;;5050864;28;20049;-59
2022/09/05 01:58:02;;;;;;;5.35;3.90;;;;;;;;;;5050259;28;20040;-59
2022/09/05 02:00:28;;;;;;;7.72;4.32;;;;;;;;;;5050078;28;20483;-59
2022/09/05 02:03:09;;;;;;;5.35;3.80;;;;;;;;;;5041671;28;20040;-59
2022/09/05 02:05:50;;;;;;;6.20;3.97;;;;;;;;;;5030023;28;20073;-59
2022/09/05 02:08:22;;;;;;;6.53;3.90;;;;;;;;;;5030340;28;20160;-59
2022/09/05 02:10:48;;;;;;;;;;;;;;;;;;5030959;28;20056;-59
2022/09/05 02:13:22;;;;;;;4.80;4.30;;;;;;;;;;5012243;28;19917;-59
2022/09/05 02:15:52;;;;;;;6.05;3.72;;;;;;;;;;5030602;28;20056;-58
2022/09/05 02:18:22;;;;;;;5.35;4.22;;;;;;;;;;5030403;28;20588;-59
2022/09/05 02:20:55;;;;;;;4.90;4.20;;;;;;;;;;5029737;28;20041;-59
2022/09/05 02:23:26;;;;;;;6.25;4.40;;;;;;;;;;5030251;28;20060;-59
2022/09/05 02:25:52;;;;;;;6.57;4.40;;;;;;;;;;5038283;28;20076;-59
2022/09/05 02:28:37;;;;;;;5.32;4.68;;;;;;;;;;5049765;28;20397;-59
2022/09/05 02:31:16;;;;;;;6.40;4.82;;;;;;;;;;5050072;28;20407;-59
2022/09/05 02:33:47;;;;;;;6.28;4.32;;;;;;;;;;5050102;28;20079;-59
2022/09/05 02:36:25;;;;;;;6.45;4.45;;;;;;;;;;5049585;28;20078;-59
2022/09/05 02:39:00;;;;;;;7.45;4.72;;;;;;;;;;5049934;28;20480;-58
2022/09/05 02:41:39;;;;;;;6.10;4.75;;;;;;;;;;5049484;28;20040;-59
2022/09/05 02:44:17;;;;;;;8.77;4.10;;;;;;;;;;5049985;28;20132;-59
2022/09/05 02:46:49;;;;;;;5.65;4.28;;;;;;;;;;5049900;28;20079;-58
2022/09/05 02:49:15;;;;;;;;;;;;;;;;;;5031960;28;20041;-59
2022/09/05 02:51:53;;;;;;;5.32;4.78;;;;;;;;;;5049832;28;19917;-58
2022/09/05 02:54:24;;;;;;;6.35;4.88;;;;;;;;;;5049690;28;20048;-59
2022/09/05 02:56:57;;;;;;;9.00;5.03;;;;;;;;;;5048901;28;20045;-59
2022/09/05 02:59:46;;;;;;;8.52;4.82;;;;;;;;;;5049589;28;20052;-58
2022/09/05 03:02:18;;;;;;;6.20;4.68;;;;;;;;;;5046304;28;20037;-59
2022/09/05 03:04:50;;;;;;;6.50;4.45;;;;;;;;;;5029252;28;20037;-59
2022/09/05 03:07:16;;;;;;;;;;;;;;;;;;5030069;28;20044;-59
2022/09/05 03:10:01;;;;;;;6.75;5.10;;;;;;;;;;5029127;28;20380;-59
2022/09/05 03:12:39;;;;;;;6.50;5.15;;;;;;;;;;5028283;28;20083;-59
2022/09/05 03:15:14;;;;;;;6.82;5.32;;;;;;;;;;5029276;28;20125;-58
2022/09/05 03:17:52;;;;;;;6.80;5.55;;;;;;;;;;5029406;28;20043;-59
2022/09/05 03:20:39;;;;;;;8.75;5.05;;;;;;;;;;5028800;28;20087;-59
2022/09/05 03:23:27;;;;;;;6.75;5.40;;;;;;;;;;5029513;28;20067;-59
2022/09/05 03:25:55;;;;;;;5.47;4.97;;;;;;;;;;5037069;28;20403;-59
2022/09/05 03:28:21;;;;;;;5.78;4.93;;;;;;;;;;5048930;28;20040;-58
2022/09/05 03:30:56;;;;;;;8.32;5.32;;;;;;;;;;5049305;28;20044;-59
2022/09/05 03:33:35;;;;;;;7.47;5.00;;;;;;;;;;5048866;28;20451;-58
2022/09/05 03:36:08;;;;;;;7.60;5.53;;;;;;;;;;5049104;28;20041;-59
2022/09/05 03:38:53;;;;;;;6.07;5.40;;;;;;;;;;5049111;28;20072;-59
2022/09/05 03:41:26;;;;;;;6.05;5.38;;;;;;;;;;5048736;28;20083;-59
2022/09/05 03:43:58;;;;;;;11.77;5.75;;;;;;;;;;5049168;28;20450;-59
2022/09/05 03:46:42;;;;;;;6.78;5.40;;;;;;;;;;5049040;28;20045;-58
2022/09/05 03:49:35;;;;;;;7.32;5.45;;;;;;;;;;5048510;28;20041;-59
2022/09/05 03:52:19;;;;;;;6.78;4.90;;;;;;;;;;5049005;28;20072;-59
2022/09/05 03:54:45;;;;;;;6.00;5.40;;;;;;;;;;5048969;28;20040;-58
2022/09/05 03:57:11;;;;;;;9.05;5.60;;;;;;;;;;5048696;28;20057;-59
2022/09/05 03:59:56;;;;;;;6.85;5.82;;;;;;;;;;5048737;28;20410;-59
2022/09/05 04:02:26;;;;;;;6.40;5.63;;;;;;;;;;5044067;28;20065;-58
2022/09/05 04:05:01;;;;;;;6.75;5.70;;;;;;;;;;5028766;28;20034;-59
2022/09/05 04:07:32;;;;;;;6.55;5.65;;;;;;;;;;5029088;28;20053;-59
2022/09/05 04:10:07;;;;;;;6.63;5.70;;;;;;;;;;5028410;28;20057;-59
2022/09/05 04:12:53;;;;;;;11.13;6.47;;;;;;;;;;5028755;28;20052;-58
2022/09/05 04:15:25;;;;;;;6.80;6.25;;;;;;;;;;5028376;28;20041;-59
2022/09/05 04:17:56;;;;;;;6.63;5.93;;;;;;;;;;5028572;28;20038;-59
2022/09/05 04:20:41;;;;;;;7.28;6.40;;;;;;;;;;5028743;28;20045;-59
2022/09/05 04:23:23;;;;;;;9.02;6.10;;;;;;;;;;5028669;28;20033;-59
2022/09/05 04:26:05;;;;;;;8.90;6.40;;;;;;;;;;5039458;28;20128;-59
2022/09/05 04:28:40;;;;;;;7.50;5.93;;;;;;;;;;5052221;28;20399;-59
2022/09/05 04:31:10;;;;;;;8.00;6.70;;;;;;;;;;5052031;28;20045;-59
2022/09/05 04:33:54;;;;;;;6.93;6.22;;;;;;;;;;5053072;28;20044;-59
2022/09/05 04:36:23;;;;;;;9.32;6.88;;;;;;;;;;5053370;28;20084;-59
2022/09/05 04:39:22;;;;;;;8.30;6.40;;;;;;;;;;5053174;28;20052;-59
2022/09/05 04:42:09;;;;;;;7.15;6.43;;;;;;;;;;5053069;28;20041;-59
2022/09/05 04:44:35;;;;;;;8.55;6.75;;;;;;;;;;5053374;28;20037;-59
2022/09/05 04:47:09;;;;;;;12.93;6.65;;;;;;;;;;5053209;28;20039;-59
2022/09/05 04:49:45;;;;;;;8.20;6.60;;;;;;;;;;5052790;28;20041;-59
2022/09/05 04:52:23;;;;;;;7.65;6.32;;;;;;;;;;5050257;28;20451;-59
2022/09/05 04:54:51;;;;;;;7.90;6.30;;;;;;;;;;5052504;28;20049;-59
2022/09/05 04:57:20;;;;;;;8.75;6.85;;;;;;;;;;5052414;28;20053;-59
2022/09/05 04:59:57;;;;;;;7.50;6.68;;;;;;;;;;5053209;28;20037;-59
2022/09/05 05:02:37;;;;;;;8.65;6.38;;;;;;;;;;5047721;28;20072;-59
2022/09/05 05:05:21;;;;;;;7.45;6.00;;;;;;;;;;5032933;28;20129;-59
2022/09/05 05:07:51;;;;;;;8.13;6.10;;;;;;;;;;5051204;28;20044;-59
2022/09/05 05:10:30;;;;;;;14.88;6.88;;;;;;;;;;5050162;28;20396;-59
2022/09/05 05:13:16;;;;;;;8.50;6.60;;;;;;;;;;5051186;28;20403;-59
2022/09/05 05:15:50;;;;;;;11.52;7.10;;;;;;;;;;5031000;28;20128;-59
2022/09/05 05:18:27;;;;;;;9.13;6.70;;;;;;;;;;5030196;28;20080;-59
2022/09/05 05:20:57;;;;;;;9.27;6.60;;;;;;;;;;5031113;28;20121;-58
2022/09/05 05:23:35;;;;;;;7.72;6.93;;;;;;;;;;5049963;28;20072;-59
2022/09/05 05:26:03;;;;;;;7.65;6.53;;;;;;;;;;5048731;28;20044;-59
2022/09/05 05:28:45;;;;;;;7.80;7.00;;;;;;;;;;5050830;28;20037;-59
2022/09/05 05:31:16;;;;;;;7.63;6.93;;;;;;;;;;5050342;28;20044;-59
2022/09/05 05:33:45;;;;;;;9.23;7.20;;;;;;;;;;5050304;28;20045;-59
2022/09/05 05:36:16;;;;;;;10.95;7.10;;;;;;;;;;5050158;28;20052;-59
2022/09/05 05:39:00;;;;;;;8.68;7.10;;;;;;;;;;5050593;28;20060;-59
2022/09/05 05:41:30;;;;;;;8.38;7.15;;;;;;;;;;5048007;28;20037;-59
2022/09/05 05:43:57;;;;;;;9.35;7.32;;;;;;;;;;5030439;28;20033;-59
2022/09/05 05:46:32;;;;;;;8.50;7.22;;;;;;;;;;5031405;28;20041;-59
2022/09/05 05:49:17;;;;;;;12.93;7.60;;;;;;;;;;5032095;28;20054;-59
2022/09/05 05:51:46;;;;;;;10.10;7.65;;;;;;;;;;5032004;28;20202;-59
2022/09/05 05:54:26;;;;;;;9.23;7.60;;;;;;;;;;5031312;28;20409;-59
2022/09/05 05:57:08;;;;;;;8.95;7.07;;;;;;;;;;5031754;28;20120;-59
2022/09/05 05:59:45;;;;;;;9.73;7.35;;;;;;;;;;5031749;28;20045;-59
2022/09/05 06:02:39;;;;;;;13.43;9.60;;;;;;;;;;5031166;28;20045;-59
2022/09/05 06:05:23;;;;;;;8.27;7.40;;;;;;;;;;5031809;28;20029;-59
2022/09/05 06:08:12;;;;;;;8.93;7.93;;;;;;;;;;5031440;28;20045;-59
2022/09/05 06:11:01;;;;;;;11.98;7.80;;;;;;;;;;5044502;28;20103;-59
2022/09/05 06:13:30;;;;;;;7.82;7.13;;;;;;;;;;5038356;28;20054;-59
2022/09/05 06:16:15;;;;;;;8.65;7.85;;;;;;;;;;5051334;28;20128;-62
2022/09/05 06:18:53;;;;;;;16.90;7.85;;;;;;;;;;5032312;28;20091;-60
2022/09/05 06:21:42;;;;;;;11.25;7.85;;;;;;;;;;5039962;28;20114;-57
2022/09/05 06:24:27;;;;;;;11.18;7.80;;;;;;;;;;5035921;28;20448;-60
2022/09/05 06:27:02;;;;;;;9.90;7.90;;;;;;;;;;5042972;28;20029;-60
2022/09/05 06:29:28;;;;;;;9.73;8.05;;;;;;;;;;5045021;28;20045;-61
2022/09/05 06:32:02;;;;;;;9.35;7.95;;;;;;;;;;5040976;28;20410;-61
2022/09/05 06:34:47;;;;;;;11.00;8.07;;;;;;;;;;5036529;28;20197;-60
2022/09/05 06:37:13;;;;;;;8.95;8.00;;;;;;;;;;5039971;28;20530;-60
2022/09/05 06:39:45;;;;;;;12.23;7.68;;;;;;;;;;5040670;28;20087;-60
2022/09/05 06:42:11;;;;;;;9.98;6.90;;;;;;;;;;5038775;28;20037;-60
2022/09/05 06:44:39;;;;;;;8.43;7.50;;;;;;;;;;5037767;28;20050;-61
2022/09/05 06:47:07;;;;;;;8.38;7.53;;;;;;;;;;5029880;28;20084;-61
2022/09/05 06:49:33;;;;;;;8.43;7.53;;;;;;;;;;5031811;28;20077;-61
2022/09/05 06:52:18;;;;;;;9.18;8.10;;;;;;;;;;5048194;28;20361;-61
2022/09/05 06:54:50;;;;;;;9.90;7.50;;;;;;;;;;5039484;28;20033;-61
2022/09/05 06:57:30;;;;;;;11.38;7.93;;;;;;;;;;5043390;28;20037;-61
2022/09/05 07:00:02;;;;;;;10.05;8.38;;;;;;;;;;5038226;28;20033;-60
2022/09/05 07:02:38;;;;;;;8.57;6.75;;;;;;;;;;5034987;28;20037;-61
2022/09/05 07:05:07;;;;;;;8.80;7.05;;;;;;;;;;5033711;28;20037;-61
2022/09/05 07:07:33;;;;;;;9.13;7.60;;;;;;;;;;5032778;28;20041;-61
2022/09/05 07:09:59;;;;;;;11.80;7.95;;;;;;;;;;5042392;28;20132;-60
2022/09/05 07:12:26;;;;;;;10.05;7.57;;;;;;;;;;5034625;28;20685;-60
2022/09/05 07:14:55;;;;;;;19.77;7.10;;;;;;;;;;5034958;28;20041;-61
2022/09/05 07:17:30;;;;;;;13.75;7.78;;;;;;;;;;5040599;28;20033;-61
2022/09/05 07:19:59;;;;;;;9.05;6.85;;;;;;;;;;5049263;28;20045;-61
2022/09/05 07:22:32;;;;;;;8.07;7.32;;;;;;;;;;5044641;28;20056;-61
2022/09/05 07:25:02;;;;;;;8.10;7.15;;;;;;;;;;5033833;28;20044;-61
2022/09/05 07:27:34;;;;;;;11.88;9.07;;;;;;;;;;5032703;28;20131;-61
2022/09/05 07:30:00;;;;;;;10.40;9.20;;;;;;;;;;5035501;28;20442;-61
2022/09/05 07:32:28;;;;;;;10.18;8.88;;;;;;;;;;5029930;28;20049;-61
2022/09/05 07:34:55;;;;;;;9.85;8.02;;;;;;;;;;5044380;28;20033;-61
2022/09/05 07:37:23;;;;;;;9.55;7.40;;;;;;;;;;5048796;28;20049;-60
2022/09/05 07:39:59;;;;;;;12.18;7.43;;;;;;;;;;5048281;28;20041;-60
2022/09/05 07:42:28;;;;;;;8.48;7.22;;;;;;;;;;5042387;28;20108;-60
2022/09/05 07:44:57;;;;;;;10.05;8.52;;;;;;;;;;5012003;28;20069;-61
2022/09/05 07:47:27;;;;;;;9.60;6.63;;;;;;;;;;5033468;28;20516;-60
2022/09/05 07:49:53;;;;;;;9.80;7.20;;;;;;;;;;5034605;28;20422;-60
2022/09/05 07:52:21;;;;;;;9.23;7.13;;;;;;;;;;5029187;28;20852;-60
2022/09/05 07:54:50;;;;;;;10.02;7.22;;;;;;;;;;5035070;28;20045;-62
2022/09/05 07:57:30;;;;;;;8.73;7.20;;;;;;;;;;5031755;28;20052;-60
2022/09/05 08:00:01;;;;;;;8.50;6.07;;;;;;;;;;5032407;28;20053;-62
2022/09/05 08:02:27;;;;;;;10.30;6.82;;;;;;;;;;5033955;28;20132;-60
2022/09/05 08:05:01;;;;;;;10.68;7.05;;;;;;;;;;5033178;28;20092;-60
2022/09/05 08:07:32;;;;;;;9.80;6.07;;;;;;;;;;5031494;28;20041;-63
2022/09/05 08:10:04;;;;;;;11.52;6.20;;;;;;;;;;5037924;28;20057;-63
2022/09/05 08:12:37;;;;;;;10.32;6.20;;;;;;;;;;5033409;28;20494;-61
2022/09/05 08:15:08;;;;;;;9.13;6.05;;;;;;;;;;5032499;28;20041;-61
2022/09/05 08:17:54;;;;;;;11.02;6.47;;;;;;;;;;5032552;28;20037;-61
2022/09/05 08:20:33;;;;;;;6.97;6.25;;;;;;;;;;5018853;28;20112;-62
2022/09/05 08:23:15;;;;;;;9.00;7.00;;;;;;;;;;5042351;28;20033;-61
2022/09/05 08:26:01;;;;;;;6.90;6.25;;;;;;;;;;5046301;28;20490;-61
2022/09/05 08:28:27;;;;;;;8.77;6.43;;;;;;;;;;5031708;28;20119;-61
2022/09/05 08:31:13;;;;;;;7.63;5.90;;;;;;;;;;5047405;28;20363;-61
2022/09/05 08:33:39;;;;;;;9.30;5.00;;;;;;;;;;5050655;28;20254;-61
2022/09/05 08:36:05;;;;;;;11.13;6.38;;;;;;;;;;5050572;28;20043;-61
2022/09/05 08:38:33;;;;;;;7.88;5.93;;;;;;;;;;5035776;28;20037;-61
2022/09/05 08:40:59;;;;;;;8.63;5.72;;;;;;;;;;5047912;28;20044;-62
2022/09/05 08:43:43;;;;;;;7.05;5.60;;;;;;;;;;5041278;28;20148;-62
2022/09/05 08:46:12;;;;;;;10.25;5.72;;;;;;;;;;5041393;28;20114;-61
2022/09/05 08:48:53;;;;;;;12.32;5.93;;;;;;;;;;5041299;28;20194;-61
2022/09/05 08:51:25;;;;;;;10.43;6.10;;;;;;;;;;5033503;28;20179;-60
2022/09/05 08:53:57;;;;;;;10.00;5.90;;;;;;;;;;5035625;28;20041;-61
2022/09/05 08:56:28;;;;;;;8.50;5.90;;;;;;;;;;5032907;28;20050;-61
2022/09/05 08:58:56;;;;;;;10.02;5.90;;;;;;;;;;5034432;28;20075;-60
2022/09/05 09:01:48;;;;;;;7.65;5.90;;;;;;;;;;5043034;28;20029;-61
2022/09/05 09:04:33;;;;;;;9.57;5.03;;;;;;;;;;5032570;28;20160;-62
2022/09/05 09:07:07;;;;;;;5.68;4.80;;;;;;;;;;5031724;28;20103;-61
2022/09/05 09:09:33;;;;;;;6.88;4.70;;;;;;;;;;5032567;28;20132;-61
2022/09/05 09:12:17;;;;;;;9.05;4.82;;;;;;;;;;5041166;28;20131;-61
2022/09/05 09:14:52;;;;;;;5.72;4.80;;;;;;;;;;5040154;28;20176;-61
2022/09/05 09:17:21;;;;;;;6.85;5.10;;;;;;;;;;5031300;28;20053;-62
2022/09/05 09:19:47;;;;;;;10.77;5.75;;;;;;;;;;5048027;28;20044;-61
2022/09/05 09:22:16;;;;;;;9.15;5.57;;;;;;;;;;5045465;28;20373;-59
2022/09/05 09:24:46;;;;;;;12.50;6.38;;;;;;;;;;5032252;28;20040;-63
2022/09/05 09:27:28;;;;;;;8.40;5.45;;;;;;;;;;5037612;28;20041;-63
2022/09/05 09:29:58;;;;;;;5.63;4.75;;;;;;;;;;5015382;28;20044;-62
2022/09/05 09:32:24;;;;;;;7.50;4.57;;;;;;;;;;5034333;28;20403;-63
2022/09/05 09:34:50;;;;;;;10.13;5.00;;;;;;;;;;5051233;28;20120;-62
2022/09/05 09:37:25;;;;;;;9.02;4.80;;;;;;;;;;5050532;28;20144;-61
2022/09/05 09:40:09;;;;;;;4.57;3.75;;;;;;;;;;5050856;28;20121;-61
2022/09/05 09:42:49;;;;;;;8.68;4.40;;;;;;;;;;5043532;28;20042;-60
2022/09/05 09:45:41;;;;;;;5.50;4.25;;;;;;;;;;5031069;28;20057;-61
2022/09/05 09:48:11;;;;;;;6.95;4.28;;;;;;;;;;5027329;28;20148;-62
2022/09/05 09:50:43;;;;;;;6.72;4.38;;;;;;;;;;5045106;28;20369;-61
2022/09/05 09:53:12;;;;;;;;;;;;;;;;;;5031734;28;20453;-62
2022/09/05 09:55:53;;;;;;;6.22;4.35;;;;;;;;;;5032615;28;20384;-63
2022/09/05 09:58:22;;;;;;;6.30;4.78;;;;;;;;;;5035766;28;20060;-62
2022/09/05 10:01:00;;;;;;;12.52;4.53;;;;;;;;;;5050642;28;20059;-61
2022/09/05 10:03:41;;;;;;;6.07;4.40;;;;;;;;;;5037364;28;20056;-62
2022/09/05 10:06:30;;;;;;;6.47;4.45;;;;;;;;;;5031454;28;20049;-62
2022/09/05 10:09:15;;;;;;;7.15;4.05;;;;;;;;;;5050379;28;20126;-61
2022/09/05 10:11:58;;;;;;;6.75;3.92;;;;;;;;;;5034230;28;20132;-62
2022/09/05 10:14:44;;;;;;;6.80;3.72;;;;;;;;;;5012672;28;20055;-62
2022/09/05 10:17:19;;;;;;;5.18;3.72;;;;;;;;;;5012640;28;20116;-63
2022/09/05 10:20:05;;;;;;;5.40;3.78;;;;;;;;;;5046636;28;20032;-63
2022/09/05 10:22:51;;;;;;;5.45;3.70;;;;;;;;;;5041211;28;20080;-62
2022/09/05 10:25:27;;;;;;;5.03;3.67;;;;;;;;;;5033642;28;20036;-63
2022/09/05 10:27:59;;;;;;;5.80;3.30;;;;;;;;;;5049317;28;20049;-62
2022/09/05 10:30:28;;;;;;;6.40;3.40;;;;;;;;;;5045284;28;20033;-64
2022/09/05 10:32:54;;;;;;;5.93;3.65;;;;;;;;;;5033653;28;20477;-63
2022/09/05 10:35:31;;;;;;;8.02;3.17;;;;;;;;;;5037261;28;20079;-63
2022/09/05 10:37:57;;;;;;;8.73;3.45;;;;;;;;;;5050430;28;20426;-63
2022/09/05 10:40:24;;;;;;;4.95;3.97;;;;;;;;;;5027151;28;20049;-63
2022/09/05 10:42:58;;;;;;;6.40;3.55;;;;;;;;;;5040131;28;20033;-63
2022/09/05 10:45:24;;;;;;;3.33;3.13;;;;;;;;;;5041164;28;20041;-62
2022/09/05 10:47:54;;;;;;;3.47;3.17;;;;;;;;;;5039784;28;20082;-61
2022/09/05 10:50:26;;;;;;;4.55;3.85;;;;;;;;;;5041959;28;20034;-61
2022/09/05 10:52:56;;;;;;;4.72;2.70;;;;;;;;;;5039461;28;20042;-61
2022/09/05 10:55:24;;;;;;;3.92;3.15;;;;;;;;;;5039566;28;20044;-61
2022/09/05 10:57:50;;;;;;;4.32;3.35;;;;;;;;;;5038059;28;20041;-61
2022/09/05 11:00:32;;;;;;;3.72;2.65;;;;;;;;;;5038553;28;20091;-62
2022/09/05 11:03:00;;;;;;;7.63;2.85;;;;;;;;;;5037650;28;20045;-61
2022/09/05 11:05:26;;;;;;;3.83;2.58;;;;;;;;;;5039649;28;20037;-61
2022/09/05 11:07:52;;;;;;;4.65;2.15;;;;;;;;;;5045977;28;20694;-62
2022/09/05 11:10:19;;;;;;;2.97;2.70;;;;;;;;;;5046364;28;20124;-60
2022/09/05 11:13:06;;;;;;;3.00;2.30;;;;;;;;;;5029419;28;20037;-61
2022/09/05 11:15:32;;;;;;;3.42;2.30;;;;;;;;;;5037724;28;20057;-61
2022/09/05 11:18:22;;;;;;;4.85;2.40;;;;;;;;;;5037773;28;20044;-61
2022/09/05 11:20:48;;;;;;;3.85;2.22;;;;;;;;;;5031701;28;20124;-62
2022/09/05 11:23:18;;;;;;;2.15;1.95;;;;;;;;;;5038724;28;20402;-62
2022/09/05 11:25:45;;;;;;;6.20;2.10;;;;;;;;;;5042332;28;20400;-62
2022/09/05 11:28:15;;;;;;;3.42;2.10;;;;;;;;;;5038658;28;20124;-61
2022/09/05 11:30:43;;;;;;;2.47;2.25;;;;;;;;;;5037282;28;20037;-61
2022/09/05 11:33:10;;;;;;;4.60;2.25;;;;;;;;;;5038370;28;20071;-61
2022/09/05 11:36:02;;;;;;;4.03;2.80;;;;;;;;;;5026354;28;20048;-63
2022/09/05 11:38:44;;;;;;;3.95;2.63;;;;;;;;;;5034169;28;20044;-62
2022/09/05 11:41:22;;;;;;;3.13;2.40;;;;;;;;;;5038050;28;20039;-62
2022/09/05 11:43:54;;;;;;;3.78;2.05;;;;;;;;;;5037174;28;20041;-63
2022/09/05 11:46:26;;;;;;;4.18;2.30;;;;;;;;;;5040313;28;20045;-62
2022/09/05 11:49:04;;;;;;;4.05;2.42;;;;;;;;;;5047068;28;20041;-62
2022/09/05 11:51:33;;;;;;;4.40;2.42;;;;;;;;;;5041463;28;20076;-62
2022/09/05 11:54:18;;;;;;;6.53;2.63;;;;;;;;;;5038786;28;20037;-63
2022/09/05 11:56:44;;;;;;;5.68;2.40;;;;;;;;;;5025374;28;20055;-62
2022/09/05 11:59:18;;;;;;;2.72;2.00;;;;;;;;;;5035863;28;20129;-63
2022/09/05 12:02:03;;;;;;;6.45;2.40;;;;;;;;;;5039026;28;20042;-62
2022/09/05 12:04:29;;;;;;;5.00;2.10;;;;;;;;;;5032443;28;20044;-63
2022/09/05 12:07:01;;;;;;;6.60;2.10;;;;;;;;;;5043850;28;20483;-63
2022/09/05 12:09:32;;;;;;;6.10;2.65;;;;;;;;;;5047212;28;20115;-64
2022/09/05 12:12:01;;;;;;;8.40;2.60;;;;;;;;;;5033760;28;20041;-64
2022/09/05 12:14:32;;;;;;;4.13;2.20;;;;;;;;;;5040220;28;20037;-63
2022/09/05 12:16:58;;;;;;;3.10;1.95;;;;;;;;;;5033009;28;20064;-62
2022/09/05 12:19:33;;;;;;;4.68;2.20;;;;;;;;;;5041347;28;20040;-62
2022/09/05 12:22:12;;;;;;;3.17;2.00;;;;;;;;;;5046886;28;20127;-63
2022/09/05 12:24:56;;;;;;;2.20;1.80;;;;;;;;;;5046624;28;20041;-62
2022/09/05 12:27:25;;;;;;;3.40;1.98;;;;;;;;;;5036943;28;20040;-63
2022/09/05 12:29:58;;;;;;;4.70;2.28;;;;;;;;;;5047419;28;20041;-63
2022/09/05 12:32:24;;;;;;;3.33;2.05;;;;;;;;;;5013148;28;20083;-62
2022/09/05 12:34:56;;;;;;;6.57;2.00;;;;;;;;;;5032157;28;20417;-62
2022/09/05 12:37:22;;;;;;;2.33;2.10;;;;;;;;;;5046999;28;20045;-63
2022/09/05 12:40:08;;;;;;;3.72;1.80;;;;;;;;;;5024437;28;20132;-64
2022/09/05 12:42:53;;;;;;;2.05;1.60;;;;;;;;;;5046597;28;20059;-63
2022/09/05 12:45:40;;;;;;;3.05;2.15;;;;;;;;;;5050042;28;20807;-64
2022/09/05 12:48:09;;;;;;;3.83;1.98;;;;;;;;;;5044241;28;20108;-63
2022/09/05 12:50:44;;;;;;;2.70;2.00;;;;;;;;;;5044097;28;20069;-65
2022/09/05 12:53:12;;;;;;;7.35;1.90;;;;;;;;;;5050345;28;20086;-63
2022/09/05 12:55:51;;;;;;;2.30;1.92;;;;;;;;;;5046659;28;20064;-61
2022/09/05 12:58:26;;;;;;;2.28;2.08;;;;;;;;;;5047107;28;20045;-62
2022/09/05 13:00:54;;;;;;;3.25;2.10;;;;;;;;;;5051284;28;20043;-62
2022/09/05 13:03:26;;;;;;;5.60;1.83;;;;;;;;;;5044381;28;20041;-63
2022/09/05 13:05:58;;;;;;;4.50;2.13;;;;;;;;;;5048488;28;20041;-63
2022/09/05 13:08:27;;;;;;;5.65;2.22;;;;;;;;;;5035697;28;20446;-63
2022/09/05 13:10:56;;;;;;;5.13;2.20;;;;;;;;;;5046984;28;20051;-63
2022/09/05 13:13:25;;;;;;;2.17;1.92;;;;;;;;;;5049870;28;20598;-62
2022/09/05 13:15:52;;;;;;;2.65;1.80;;;;;;;;;;5048086;28;20052;-63
2022/09/05 13:18:21;;;;;;;3.72;1.90;;;;;;;;;;5049125;28;20040;-62
2022/09/05 13:20:57;;;;;;;4.18;1.80;;;;;;;;;;5043602;28;20033;-63
2022/09/05 13:23:39;;;;;;;2.80;2.10;;;;;;;;;;5032431;28;20080;-62
2022/09/05 13:26:07;;;;;;;3.88;2.03;;;;;;;;;;5042339;28;20417;-63
2022/09/05 13:28:53;;;;;;;4.22;1.95;;;;;;;;;;5041358;28;20053;-61
2022/09/05 13:31:39;;;;;;;2.00;1.77;;;;;;;;;;5034242;28;20067;-62
2022/09/05 13:34:18;;;;;;;3.08;1.95;;;;;;;;;;5027923;28;20128;-62
2022/09/05 13:36:48;;;;;;;1.95;1.80;;;;;;;;;;5045050;28;20427;-62
2022/09/05 13:39:17;;;;;;;4.10;1.90;;;;;;;;;;5045473;28;20042;-62
2022/09/05 13:41:49;;;;;;;2.10;1.73;;;;;;;;;;5045882;28;20064;-63
2022/09/05 13:44:17;;;;;;;3.60;2.10;;;;;;;;;;5050339;28;20395;-61
2022/09/05 13:47:05;;;;;;;6.57;2.00;;;;;;;;;;5046800;28;20416;-63
2022/09/05 13:49:35;;;;;;;2.22;1.85;;;;;;;;;;5051073;28;20073;-64
2022/09/05 13:52:04;;;;;;;4.95;2.20;;;;;;;;;;5051925;28;20138;-63
2022/09/05 13:54:46;;;;;;;2.40;2.10;;;;;;;;;;5051869;28;20506;-63
2022/09/05 13:57:18;;;;;;;2.60;1.92;;;;;;;;;;5050198;28;20079;-63
2022/09/05 14:00:03;;;;;;;3.05;1.70;;;;;;;;;;5039811;28;20037;-64
2022/09/05 14:02:37;;;;;;;3.17;1.92;;;;;;;;;;5031396;28;20149;-64
2022/09/05 14:05:22;;;;;;;4.72;2.38;;;;;;;;;;5031620;28;20038;-63
2022/09/05 14:07:48;;;;;;;2.20;2.00;;;;;;;;;;5031509;28;20041;-63
2022/09/05 14:10:21;;;;;;;5.25;2.10;;;;;;;;;;5031312;28;20048;-63
2022/09/05 14:12:50;;;;;;;4.20;1.80;;;;;;;;;;5031861;28;20045;-63
2022/09/05 14:15:17;;;;;;;2.85;1.90;;;;;;;;;;5031717;28;20041;-63
2022/09/05 14:17:57;;;;;;;2.53;1.95;;;;;;;;;;5013163;28;20468;-63
2022/09/05 14:23:12;;;;;;;2.40;2.10;;;;;;;;;;5031484;28;20041;-63
2022/09/05 14:25:51;;;;;;;4.05;2.00;;;;;;;;;;5037158;28;20041;-62
2022/09/05 14:28:20;;;;;;;3.15;1.88;;;;;;;;;;5050749;28;20052;-63
2022/09/05 14:31:05;;;;;;;3.97;1.77;;;;;;;;;;5051381;28;20037;-63
2022/09/05 14:33:36;;;;;;;3.15;1.90;;;;;;;;;;5050883;28;20045;-62
2022/09/05 14:36:11;;;;;;;2.03;1.92;;;;;;;;;;5051004;28;20555;-62
2022/09/05 14:38:46;;;;;;;3.95;1.85;;;;;;;;;;5051260;28;20245;-62
2022/09/05 14:41:23;;;;;;;2.60;1.80;;;;;;;;;;5050847;28;20068;-62
2022/09/05 14:44:08;;;;;;;2.80;1.90;;;;;;;;;;5051149;28;20040;-63
2022/09/05 14:46:40;;;;;;;4.05;2.03;;;;;;;;;;5051139;28;20048;-63
2022/09/05 14:49:09;;;;;;;3.15;1.85;;;;;;;;;;5032597;28;20033;-62
2022/09/05 14:51:38;;;;;;;3.75;1.60;;;;;;;;;;5050972;28;20471;-62
2022/09/05 14:54:04;;;;;;;6.45;2.20;;;;;;;;;;5050819;28;20126;-62
2022/09/05 14:56:36;;;;;;;5.50;2.10;;;;;;;;;;5050467;28;20049;-62
2022/09/05 14:59:14;;;;;;;3.38;2.00;;;;;;;;;;5050806;28;20041;-62
2022/09/05 15:01:47;;;;;;;3.42;2.13;;;;;;;;;;5049383;28;20045;-63
2022/09/05 15:04:17;;;;;;;4.03;2.08;;;;;;;;;;5031040;28;20124;-63
2022/09/05 15:06:57;;;;;;;5.20;2.15;;;;;;;;;;5030213;28;20049;-63
2022/09/05 15:09:23;;;;;;;5.50;2.38;;;;;;;;;;5011267;28;20099;-62
2022/09/05 15:11:49;;;;;;;5.22;2.10;;;;;;;;;;5030545;28;20056;-63
2022/09/05 15:14:18;;;;;;;2.78;1.98;;;;;;;;;;5030638;28;20053;-63
2022/09/05 15:16:55;;;;;;;3.17;2.10;;;;;;;;;;5029957;28;20202;-63
2022/09/05 15:19:40;;;;;;;2.20;1.90;;;;;;;;;;5030628;28;20123;-63
2022/09/05 15:22:19;;;;;;;2.28;2.08;;;;;;;;;;5030795;28;20037;-62
2022/09/05 15:24:59;;;;;;;4.70;2.20;;;;;;;;;;5030403;28;20037;-62
2022/09/05 15:27:27;;;;;;;3.25;1.75;;;;;;;;;;5030715;28;20068;-62
2022/09/05 15:29:54;;;;;;;2.38;2.13;;;;;;;;;;5030705;28;20515;-62
2022/09/05 15:32:25;;;;;;;2.45;1.90;;;;;;;;;;5029917;28;20049;-62